sensor_id;sensor_type;location;lat;lon;timestamp;pressure;altitude;pressure_sealevel;temperature;humidity
7584;BME280;3833;41.764;26.204;2023-02-13T00:01:52;100831.97;;;-1.26;100.00
7584;BME280;3833;41.764;26.204;2023-02-13T00:04:21;100835.44;;;-1.23;100.00
7584;BME280;3833;41.764;26.204;2023-02-13T00:06:48;100836.09;;;-1.36;100.00
7584;BME280;3833;41.764;26.204;2023-02-13T00:09:14;100835.94;;;-1.45;100.00
7584;BME280;3833;41.764;26.204;2023-02-13T00:11:41;100843.47;;;-1.55;100.00
7584;BME280;3833;41.764;26.204;2023-02-13T00:14:08;100847.75;;;-1.56;100.00
7584;BME280;3833;41.764;26.204;2023-02-13T00:16:35;100849.31;;;-1.64;100.00
7584;BME280;3833;41.764;26.204;2023-02-13T00:19:02;100807.66;;;-2.06;100.00
7584;BME280;3833;41.764;26.204;2023-02-13T00:21:30;100851.44;;;-1.89;100.00
7584;BME280;3833;41.764;26.204;2023-02-13T00:23:57;100842.53;;;-2.10;100.00
7584;BME280;3833;41.764;26.204;2023-02-13T00:26:24;100806.78;;;-2.55;100.00
7584;BME280;3833;41.764;26.204;2023-02-13T00:28:51;100852.28;;;-2.37;100.00
7584;BME280;3833;41.764;26.204;2023-02-13T00:31:20;100730.53;;;-3.21;100.00
7584;BME280;3833;41.764;26.204;2023-02-13T00:33:47;100855.09;;;-2.67;100.00
7584;BME280;3833;41.764;26.204;2023-02-13T00:36:17;100851.56;;;-2.72;100.00
7584;BME280;3833;41.764;26.204;2023-02-13T00:38:46;100857.38;;;-2.80;100.00
7584;BME280;3833;41.764;26.204;2023-02-13T00:41:13;100859.88;;;-2.82;100.00
7584;BME280;3833;41.764;26.204;2023-02-13T00:43:41;100820.88;;;-3.13;100.00
7584;BME280;3833;41.764;26.204;2023-02-13T00:46:09;100857.03;;;-2.95;100.00
7584;BME280;3833;41.764;26.204;2023-02-13T00:48:36;100847.69;;;-2.95;100.00
7584;BME280;3833;41.764;26.204;2023-02-13T00:51:04;100848.44;;;-3.00;100.00
7584;BME280;3833;41.764;26.204;2023-02-13T00:53:31;100805.31;;;-3.25;100.00
7584;BME280;3833;41.764;26.204;2023-02-13T00:56:00;100852.72;;;-2.98;100.00
7584;BME280;3833;41.764;26.204;2023-02-13T00:58:27;100854.50;;;-2.94;100.00
7584;BME280;3833;41.764;26.204;2023-02-13T01:00:54;100853.63;;;-2.94;100.00
7584;BME280;3833;41.764;26.204;2023-02-13T01:03:22;100862.13;;;-2.95;100.00
7584;BME280;3833;41.764;26.204;2023-02-13T01:05:49;100844.91;;;-3.05;100.00
7584;BME280;3833;41.764;26.204;2023-02-13T01:08:17;100844.06;;;-3.04;100.00
7584;BME280;3833;41.764;26.204;2023-02-13T01:10:46;100841.00;;;-2.90;100.00
7584;BME280;3833;41.764;26.204;2023-02-13T01:13:16;100839.25;;;-2.91;100.00
7584;BME280;3833;41.764;26.204;2023-02-13T01:15:44;100852.78;;;-2.95;100.00
7584;BME280;3833;41.764;26.204;2023-02-13T01:18:12;100856.34;;;-2.88;100.00
7584;BME280;3833;41.764;26.204;2023-02-13T01:20:40;100857.09;;;-2.92;100.00
7584;BME280;3833;41.764;26.204;2023-02-13T01:23:06;100759.88;;;-3.41;100.00
7584;BME280;3833;41.764;26.204;2023-02-13T01:25:33;100862.53;;;-2.77;100.00
7584;BME280;3833;41.764;26.204;2023-02-13T01:28:00;100851.34;;;-2.82;100.00
7584;BME280;3833;41.764;26.204;2023-02-13T01:30:28;100854.91;;;-2.76;100.00
7584;BME280;3833;41.764;26.204;2023-02-13T01:32:55;100858.31;;;-2.75;100.00
7584;BME280;3833;41.764;26.204;2023-02-13T01:35:22;100860.00;;;-2.77;100.00
7584;BME280;3833;41.764;26.204;2023-02-13T01:37:49;100858.34;;;-2.74;100.00
7584;BME280;3833;41.764;26.204;2023-02-13T01:40:16;100858.13;;;-2.83;100.00
7584;BME280;3833;41.764;26.204;2023-02-13T01:42:43;100858.00;;;-2.90;100.00
7584;BME280;3833;41.764;26.204;2023-02-13T01:45:23;100745.03;;;-3.58;100.00
7584;BME280;3833;41.764;26.204;2023-02-13T01:47:55;100863.84;;;-2.96;100.00
7584;BME280;3833;41.764;26.204;2023-02-13T01:50:25;100811.28;;;-3.24;100.00
7584;BME280;3833;41.764;26.204;2023-02-13T01:52:59;100860.75;;;-2.81;100.00
7584;BME280;3833;41.764;26.204;2023-02-13T01:55:28;100836.66;;;-2.92;100.00
7584;BME280;3833;41.764;26.204;2023-02-13T01:58:00;100843.41;;;-2.96;100.00
7584;BME280;3833;41.764;26.204;2023-02-13T02:00:28;100843.41;;;-2.94;100.00
7584;BME280;3833;41.764;26.204;2023-02-13T02:03:00;100869.31;;;-2.78;100.00
7584;BME280;3833;41.764;26.204;2023-02-13T02:05:30;100872.88;;;-2.71;100.00
7584;BME280;3833;41.764;26.204;2023-02-13T02:07:58;100765.28;;;-3.27;100.00
7584;BME280;3833;41.764;26.204;2023-02-13T02:10:25;100836.78;;;-2.86;100.00
7584;BME280;3833;41.764;26.204;2023-02-13T02:12:57;100864.50;;;-2.64;100.00
7584;BME280;3833;41.764;26.204;2023-02-13T02:15:27;100871.50;;;-2.54;100.00
7584;BME280;3833;41.764;26.204;2023-02-13T02:17:54;100873.50;;;-2.41;100.00
7584;BME280;3833;41.764;26.204;2023-02-13T02:20:35;100847.03;;;-2.45;100.00
7584;BME280;3833;41.764;26.204;2023-02-13T02:23:32;100770.19;;;-2.95;100.00
7584;BME280;3833;41.764;26.204;2023-02-13T02:32:43;100887.03;;;-2.45;100.00
7584;BME280;3833;41.764;26.204;2023-02-13T02:35:22;100888.63;;;-2.50;100.00
7584;BME280;3833;41.764;26.204;2023-02-13T02:38:05;100853.31;;;-2.69;100.00
7584;BME280;3833;41.764;26.204;2023-02-13T02:40:39;100891.84;;;-2.60;100.00
7584;BME280;3833;41.764;26.204;2023-02-13T02:43:17;100781.69;;;-3.15;100.00
7584;BME280;3833;41.764;26.204;2023-02-13T02:45:53;100891.84;;;-2.60;100.00
7584;BME280;3833;41.764;26.204;2023-02-13T02:48:27;100884.19;;;-2.60;100.00
7584;BME280;3833;41.764;26.204;2023-02-13T02:51:19;100879.03;;;-2.62;100.00
7584;BME280;3833;41.764;26.204;2023-02-13T02:53:56;100886.72;;;-2.60;100.00
7584;BME280;3833;41.764;26.204;2023-02-13T02:56:30;100881.56;;;-2.63;100.00
7584;BME280;3833;41.764;26.204;2023-02-13T02:59:04;100882.47;;;-2.60;100.00
7584;BME280;3833;41.764;26.204;2023-02-13T03:01:52;100883.16;;;-2.68;100.00
7584;BME280;3833;41.764;26.204;2023-02-13T03:04:39;100888.19;;;-2.71;100.00
7584;BME280;3833;41.764;26.204;2023-02-13T03:07:24;100888.91;;;-2.78;100.00
7584;BME280;3833;41.764;26.204;2023-02-13T03:09:55;100705.38;;;-3.83;100.00
7584;BME280;3833;41.764;26.204;2023-02-13T03:12:44;100812.16;;;-3.24;100.00
7584;BME280;3833;41.764;26.204;2023-02-13T03:15:31;100896.59;;;-2.78;100.00
7584;BME280;3833;41.764;26.204;2023-02-13T03:17:58;100801.88;;;-3.27;100.00
7584;BME280;3833;41.764;26.204;2023-02-13T03:20:50;100903.41;;;-2.77;100.00
7584;BME280;3833;41.764;26.204;2023-02-13T03:23:45;100899.91;;;-2.82;100.00
7584;BME280;3833;41.764;26.204;2023-02-13T03:26:35;100899.00;;;-2.83;100.00
7584;BME280;3833;41.764;26.204;2023-02-13T03:29:20;100906.72;;;-2.81;100.00
7584;BME280;3833;41.764;26.204;2023-02-13T03:32:11;100777.38;;;-3.56;100.00
7584;BME280;3833;41.764;26.204;2023-02-13T03:34:50;100855.94;;;-3.08;100.00
7584;BME280;3833;41.764;26.204;2023-02-13T03:37:42;100917.09;;;-2.75;100.00
7584;BME280;3833;41.764;26.204;2023-02-13T03:40:26;100921.16;;;-2.83;100.00
7584;BME280;3833;41.764;26.204;2023-02-13T03:43:00;100918.59;;;-2.83;100.00
7584;BME280;3833;41.764;26.204;2023-02-13T03:45:32;100889.41;;;-2.94;100.00
7584;BME280;3833;41.764;26.204;2023-02-13T03:48:24;100837.53;;;-3.30;100.00
7584;BME280;3833;41.764;26.204;2023-02-13T03:51:13;100859.16;;;-3.16;100.00
7584;BME280;3833;41.764;26.204;2023-02-13T03:53:45;100921.34;;;-2.74;100.00
7584;BME280;3833;41.764;26.204;2023-02-13T03:56:17;100895.41;;;-2.92;100.00
7584;BME280;3833;41.764;26.204;2023-02-13T03:59:04;100891.09;;;-2.96;100.00
7584;BME280;3833;41.764;26.204;2023-02-13T04:01:44;100922.22;;;-2.72;100.00
7584;BME280;3833;41.764;26.204;2023-02-13T04:04:18;100925.56;;;-2.76;100.00
7584;BME280;3833;41.764;26.204;2023-02-13T04:06:50;100918.66;;;-2.80;100.00
7584;BME280;3833;41.764;26.204;2023-02-13T04:09:19;100914.31;;;-2.86;100.00
7584;BME280;3833;41.764;26.204;2023-02-13T04:11:51;100920.25;;;-2.85;100.00
7584;BME280;3833;41.764;26.204;2023-02-13T04:14:22;100923.72;;;-2.83;100.00
7584;BME280;3833;41.764;26.204;2023-02-13T04:16:53;100918.59;;;-2.83;100.00
7584;BME280;3833;41.764;26.204;2023-02-13T04:19:24;100913.34;;;-2.89;100.00
7584;BME280;3833;41.764;26.204;2023-02-13T04:21:55;100916.03;;;-2.83;100.00
7584;BME280;3833;41.764;26.204;2023-02-13T04:24:24;100908.63;;;-2.71;100.00
7584;BME280;3833;41.764;26.204;2023-02-13T04:26:51;100917.19;;;-2.69;100.00
7584;BME280;3833;41.764;26.204;2023-02-13T04:29:20;100885.31;;;-2.88;100.00
7584;BME280;3833;41.764;26.204;2023-02-13T04:31:47;100906.97;;;-2.71;100.00
7584;BME280;3833;41.764;26.204;2023-02-13T04:34:14;100898.16;;;-2.83;100.00
7584;BME280;3833;41.764;26.204;2023-02-13T04:36:41;100812.22;;;-3.21;100.00
7584;BME280;3833;41.764;26.204;2023-02-13T04:39:08;100911.31;;;-2.65;100.00
7584;BME280;3833;41.764;26.204;2023-02-13T04:41:36;100894.84;;;-2.79;100.00
7584;BME280;3833;41.764;26.204;2023-02-13T04:44:03;100912.91;;;-2.72;100.00
7584;BME280;3833;41.764;26.204;2023-02-13T04:46:30;100913.88;;;-2.67;100.00
7584;BME280;3833;41.764;26.204;2023-02-13T04:48:56;100920.69;;;-2.66;100.00
7584;BME280;3833;41.764;26.204;2023-02-13T04:51:23;100919.84;;;-2.65;100.00
7584;BME280;3833;41.764;26.204;2023-02-13T04:53:50;100924.94;;;-2.66;100.00
7584;BME280;3833;41.764;26.204;2023-02-13T04:56:17;100918.03;;;-2.70;100.00
7584;BME280;3833;41.764;26.204;2023-02-13T04:58:45;100925.69;;;-2.70;100.00
7584;BME280;3833;41.764;26.204;2023-02-13T05:01:12;100878.13;;;-3.04;100.00
7584;BME280;3833;41.764;26.204;2023-02-13T05:03:39;100933.25;;;-2.76;100.00
7584;BME280;3833;41.764;26.204;2023-02-13T05:06:06;100915.06;;;-2.88;100.00
7584;BME280;3833;41.764;26.204;2023-02-13T05:08:33;100929.91;;;-2.72;100.00
7584;BME280;3833;41.764;26.204;2023-02-13T05:11:00;100936.78;;;-2.70;100.00
7584;BME280;3833;41.764;26.204;2023-02-13T05:13:27;100931.69;;;-2.70;100.00
7584;BME280;3833;41.764;26.204;2023-02-13T05:15:55;100904.88;;;-2.88;100.00
7584;BME280;3833;41.764;26.204;2023-02-13T05:18:22;100935.06;;;-2.71;100.00
7584;BME280;3833;41.764;26.204;2023-02-13T05:20:49;100934.31;;;-2.65;100.00
7584;BME280;3833;41.764;26.204;2023-02-13T05:23:30;100943.63;;;-2.69;100.00
7584;BME280;3833;41.764;26.204;2023-02-13T05:25:57;100958.06;;;-2.69;100.00
7584;BME280;3833;41.764;26.204;2023-02-13T05:28:24;100958.22;;;-2.63;100.00
7584;BME280;3833;41.764;26.204;2023-02-13T05:31:10;100961.81;;;-2.55;100.00
7584;BME280;3833;41.764;26.204;2023-02-13T05:33:36;100903.06;;;-2.92;100.00
7584;BME280;3833;41.764;26.204;2023-02-13T05:36:04;100910.63;;;-2.98;100.00
7584;BME280;3833;41.764;26.204;2023-02-13T05:38:31;100959.63;;;-2.77;100.00
7584;BME280;3833;41.764;26.204;2023-02-13T05:40:58;100955.44;;;-2.74;100.00
7584;BME280;3833;41.764;26.204;2023-02-13T05:43:25;100908.16;;;-2.92;100.00
7584;BME280;3833;41.764;26.204;2023-02-13T05:46:00;100973.03;;;-2.47;100.00
7584;BME280;3833;41.764;26.204;2023-02-13T05:48:28;100980.78;;;-2.44;100.00
7584;BME280;3833;41.764;26.204;2023-02-13T05:50:55;100970.31;;;-2.56;100.00
7584;BME280;3833;41.764;26.204;2023-02-13T05:53:22;100960.91;;;-2.57;100.00
7584;BME280;3833;41.764;26.204;2023-02-13T05:55:49;100977.19;;;-2.52;100.00
7584;BME280;3833;41.764;26.204;2023-02-13T05:58:17;100970.34;;;-2.53;100.00
7584;BME280;3833;41.764;26.204;2023-02-13T06:00:44;100968.91;;;-2.42;100.00
7584;BME280;3833;41.764;26.204;2023-02-13T06:03:11;100972.59;;;-2.28;100.00
7584;BME280;3833;41.764;26.204;2023-02-13T06:05:39;100939.91;;;-2.43;100.00
7584;BME280;3833;41.764;26.204;2023-02-13T06:08:06;100966.78;;;-2.21;100.00
7584;BME280;3833;41.764;26.204;2023-02-13T06:10:33;100972.19;;;-2.07;100.00
7584;BME280;3833;41.764;26.204;2023-02-13T06:12:59;100969.75;;;-2.01;100.00
7584;BME280;3833;41.764;26.204;2023-02-13T06:15:26;100955.94;;;-2.08;100.00
7584;BME280;3833;41.764;26.204;2023-02-13T06:17:53;100979.38;;;-1.89;100.00
7584;BME280;3833;41.764;26.204;2023-02-13T06:20:20;100982.00;;;-1.85;100.00
7584;BME280;3833;41.764;26.204;2023-02-13T06:22:49;100975.41;;;-1.74;100.00
7584;BME280;3833;41.764;26.204;2023-02-13T06:25:16;100988.41;;;-1.63;100.00
7584;BME280;3833;41.764;26.204;2023-02-13T06:27:43;100983.63;;;0.38;100.00
7584;BME280;3833;41.764;26.204;2023-02-13T06:30:11;100979.84;;;3.10;100.00
7584;BME280;3833;41.764;26.204;2023-02-13T06:32:38;100983.28;;;5.05;85.77
7584;BME280;3833;41.764;26.204;2023-02-13T06:35:06;100987.66;;;5.90;73.87
7584;BME280;3833;41.764;26.204;2023-02-13T06:37:33;100993.53;;;5.18;72.62
7584;BME280;3833;41.764;26.204;2023-02-13T06:40:02;100995.47;;;5.86;71.24
7584;BME280;3833;41.764;26.204;2023-02-13T06:42:29;100997.59;;;7.39;64.98
7584;BME280;3833;41.764;26.204;2023-02-13T06:44:56;100996.19;;;8.12;62.69
7584;BME280;3833;41.764;26.204;2023-02-13T06:47:23;100979.44;;;9.02;57.08
7584;BME280;3833;41.764;26.204;2023-02-13T06:49:50;100992.53;;;8.98;56.87
7584;BME280;3833;41.764;26.204;2023-02-13T06:52:16;100992.66;;;9.28;54.79
7584;BME280;3833;41.764;26.204;2023-02-13T06:54:43;100992.91;;;9.52;53.31
7584;BME280;3833;41.764;26.204;2023-02-13T06:57:11;101000.44;;;10.27;51.30
7584;BME280;3833;41.764;26.204;2023-02-13T06:59:38;100970.91;;;10.25;50.16
7584;BME280;3833;41.764;26.204;2023-02-13T07:02:05;100990.88;;;12.10;48.86
7584;BME280;3833;41.764;26.204;2023-02-13T07:04:32;100996.66;;;12.18;45.82
7584;BME280;3833;41.764;26.204;2023-02-13T07:06:59;101000.00;;;14.32;43.08
7584;BME280;3833;41.764;26.204;2023-02-13T07:09:26;100990.00;;;15.12;40.85
7584;BME280;3833;41.764;26.204;2023-02-13T07:11:53;100985.22;;;15.20;39.94
7584;BME280;3833;41.764;26.204;2023-02-13T07:14:21;100981.78;;;13.69;42.41
7584;BME280;3833;41.764;26.204;2023-02-13T07:16:48;100980.13;;;13.87;40.99
7584;BME280;3833;41.764;26.204;2023-02-13T07:19:15;100984.72;;;12.34;44.73
7584;BME280;3833;41.764;26.204;2023-02-13T07:21:41;100994.47;;;12.97;44.03
7584;BME280;3833;41.764;26.204;2023-02-13T07:24:08;100992.78;;;11.56;44.70
7584;BME280;3833;41.764;26.204;2023-02-13T07:26:35;101002.97;;;11.65;46.48
7584;BME280;3833;41.764;26.204;2023-02-13T07:29:02;101007.09;;;11.95;43.90
7584;BME280;3833;41.764;26.204;2023-02-13T07:31:32;101002.63;;;11.74;46.74
7584;BME280;3833;41.764;26.204;2023-02-13T07:33:59;100999.63;;;12.54;45.26
7584;BME280;3833;41.764;26.204;2023-02-13T07:36:26;101001.16;;;11.67;45.29
7584;BME280;3833;41.764;26.204;2023-02-13T07:38:53;101001.63;;;12.25;43.60
7584;BME280;3833;41.764;26.204;2023-02-13T07:41:20;100993.50;;;12.33;42.43
7584;BME280;3833;41.764;26.204;2023-02-13T07:43:50;100960.19;;;11.40;42.61
7584;BME280;3833;41.764;26.204;2023-02-13T07:46:17;100991.63;;;11.13;45.44
7584;BME280;3833;41.764;26.204;2023-02-13T07:48:45;100996.59;;;11.96;43.40
7584;BME280;3833;41.764;26.204;2023-02-13T07:51:12;100996.72;;;14.27;40.69
7584;BME280;3833;41.764;26.204;2023-02-13T07:53:39;100985.66;;;13.61;40.13
7584;BME280;3833;41.764;26.204;2023-02-13T07:56:06;100990.66;;;15.17;37.43
7584;BME280;3833;41.764;26.204;2023-02-13T07:58:33;100981.31;;;13.40;38.54
7584;BME280;3833;41.764;26.204;2023-02-13T08:01:05;100990.63;;;14.63;37.61
7584;BME280;3833;41.764;26.204;2023-02-13T08:03:32;100987.03;;;14.66;38.10
7584;BME280;3833;41.764;26.204;2023-02-13T08:06:00;100990.91;;;14.57;37.73
7584;BME280;3833;41.764;26.204;2023-02-13T08:08:28;100980.94;;;14.82;36.93
7584;BME280;3833;41.764;26.204;2023-02-13T08:10:54;100952.72;;;13.74;37.78
7584;BME280;3833;41.764;26.204;2023-02-13T08:13:39;100986.88;;;14.51;37.39
7584;BME280;3833;41.764;26.204;2023-02-13T08:16:07;100983.00;;;14.01;38.55
7584;BME280;3833;41.764;26.204;2023-02-13T08:18:33;100985.94;;;13.95;38.15
7584;BME280;3833;41.764;26.204;2023-02-13T08:21:02;100980.72;;;13.53;39.51
7584;BME280;3833;41.764;26.204;2023-02-13T08:23:29;100978.56;;;13.43;38.41
7584;BME280;3833;41.764;26.204;2023-02-13T08:25:58;100949.84;;;15.93;35.36
7584;BME280;3833;41.764;26.204;2023-02-13T08:28:25;100895.09;;;12.48;35.01
7584;BME280;3833;41.764;26.204;2023-02-13T08:30:52;100972.63;;;13.98;34.82
7584;BME280;3833;41.764;26.204;2023-02-13T08:33:19;100939.13;;;15.47;32.32
7584;BME280;3833;41.764;26.204;2023-02-13T08:35:45;100957.69;;;19.68;28.67
7584;BME280;3833;41.764;26.204;2023-02-13T08:38:14;100955.13;;;19.79;27.77
7584;BME280;3833;41.764;26.204;2023-02-13T08:40:41;100945.69;;;19.62;26.95
7584;BME280;3833;41.764;26.204;2023-02-13T08:43:07;100948.16;;;19.65;27.14
7584;BME280;3833;41.764;26.204;2023-02-13T08:45:34;100932.59;;;20.59;25.17
7584;BME280;3833;41.764;26.204;2023-02-13T08:48:02;100926.94;;;18.05;26.03
7584;BME280;3833;41.764;26.204;2023-02-13T08:50:29;100936.56;;;18.20;26.51
7584;BME280;3833;41.764;26.204;2023-02-13T08:52:57;100917.25;;;18.86;26.23
7584;BME280;3833;41.764;26.204;2023-02-13T08:55:26;100939.13;;;20.30;24.54
7584;BME280;3833;41.764;26.204;2023-02-13T08:57:54;100856.78;;;20.31;24.92
7584;BME280;3833;41.764;26.204;2023-02-13T09:00:21;100866.66;;;20.29;25.36
7584;BME280;3833;41.764;26.204;2023-02-13T09:02:48;100942.47;;;20.57;24.79
7584;BME280;3833;41.764;26.204;2023-02-13T09:05:14;100935.69;;;20.53;25.48
7584;BME280;3833;41.764;26.204;2023-02-13T09:07:41;100932.75;;;18.66;26.26
7584;BME280;3833;41.764;26.204;2023-02-13T09:10:08;100931.88;;;18.66;26.89
7584;BME280;3833;41.764;26.204;2023-02-13T09:12:37;100932.88;;;18.23;27.40
7584;BME280;3833;41.764;26.204;2023-02-13T09:15:04;100926.28;;;18.02;27.47
7584;BME280;3833;41.764;26.204;2023-02-13T09:17:31;100908.44;;;14.95;30.31
7584;BME280;3833;41.764;26.204;2023-02-13T09:19:58;100912.66;;;15.50;30.41
7584;BME280;3833;41.764;26.204;2023-02-13T09:22:24;100927.09;;;16.08;30.06
7584;BME280;3833;41.764;26.204;2023-02-13T09:24:51;100927.63;;;16.14;30.09
7584;BME280;3833;41.764;26.204;2023-02-13T09:27:18;100911.03;;;16.75;29.55
7584;BME280;3833;41.764;26.204;2023-02-13T09:29:46;100918.78;;;15.83;29.95
7584;BME280;3833;41.764;26.204;2023-02-13T09:32:13;100900.09;;;18.39;28.28
7584;BME280;3833;41.764;26.204;2023-02-13T09:34:41;100902.50;;;20.35;26.31
7584;BME280;3833;41.764;26.204;2023-02-13T09:37:08;100916.69;;;17.58;28.19
7584;BME280;3833;41.764;26.204;2023-02-13T09:39:35;100906.78;;;18.45;28.03
7584;BME280;3833;41.764;26.204;2023-02-13T09:42:04;100912.66;;;17.07;30.09
7584;BME280;3833;41.764;26.204;2023-02-13T09:44:39;100902.25;;;20.02;27.87
7584;BME280;3833;41.764;26.204;2023-02-13T09:47:14;100809.88;;;18.70;27.74
7584;BME280;3833;41.764;26.204;2023-02-13T09:49:45;100876.66;;;19.51;27.64
7584;BME280;3833;41.764;26.204;2023-02-13T09:52:14;100890.78;;;18.86;28.25
7584;BME280;3833;41.764;26.204;2023-02-13T09:54:41;100893.78;;;18.14;29.86
7584;BME280;3833;41.764;26.204;2023-02-13T09:57:16;100894.50;;;16.72;30.67
7584;BME280;3833;41.764;26.204;2023-02-13T09:59:55;100824.53;;;17.39;30.42
7584;BME280;3833;41.764;26.204;2023-02-13T10:02:36;100860.78;;;17.79;29.21
7584;BME280;3833;41.764;26.204;2023-02-13T10:05:20;100870.84;;;15.10;32.28
7584;BME280;3833;41.764;26.204;2023-02-13T10:07:56;100828.19;;;15.38;32.96
7584;BME280;3833;41.764;26.204;2023-02-13T10:10:33;100873.13;;;17.92;30.34
7584;BME280;3833;41.764;26.204;2023-02-13T10:13:14;100864.31;;;16.47;31.05
7584;BME280;3833;41.764;26.204;2023-02-13T10:15:53;100868.47;;;14.54;33.92
7584;BME280;3833;41.764;26.204;2023-02-13T10:18:28;100845.06;;;14.31;34.34
7584;BME280;3833;41.764;26.204;2023-02-13T10:21:01;100858.16;;;15.18;34.81
7584;BME280;3833;41.764;26.204;2023-02-13T10:23:32;100862.25;;;16.21;33.30
7584;BME280;3833;41.764;26.204;2023-02-13T10:26:01;100851.44;;;15.62;34.06
7584;BME280;3833;41.764;26.204;2023-02-13T10:28:33;100839.34;;;14.92;33.61
7584;BME280;3833;41.764;26.204;2023-02-13T10:31:05;100837.50;;;13.68;36.25
7584;BME280;3833;41.764;26.204;2023-02-13T10:33:39;100841.38;;;9.92;41.39
7584;BME280;3833;41.764;26.204;2023-02-13T10:36:16;100842.28;;;9.62;44.91
7584;BME280;3833;41.764;26.204;2023-02-13T10:38:54;100832.91;;;9.26;45.39
7584;BME280;3833;41.764;26.204;2023-02-13T10:41:23;100840.50;;;9.33;45.71
7584;BME280;3833;41.764;26.204;2023-02-13T10:44:08;100820.50;;;8.70;48.23
7584;BME280;3833;41.764;26.204;2023-02-13T10:46:43;100797.03;;;8.72;47.96
7584;BME280;3833;41.764;26.204;2023-02-13T10:49:30;100822.53;;;8.93;48.97
7584;BME280;3833;41.764;26.204;2023-02-13T10:52:05;100800.50;;;9.04;48.65
7584;BME280;3833;41.764;26.204;2023-02-13T10:54:50;100798.53;;;9.12;47.58
7584;BME280;3833;41.764;26.204;2023-02-13T10:57:24;100816.31;;;8.30;50.24
7584;BME280;3833;41.764;26.204;2023-02-13T11:00:06;100793.38;;;9.11;49.92
7584;BME280;3833;41.764;26.204;2023-02-13T11:02:35;100801.91;;;8.84;49.87
7584;BME280;3833;41.764;26.204;2023-02-13T11:05:14;100799.09;;;8.91;50.00
7584;BME280;3833;41.764;26.204;2023-02-13T11:07:43;100717.13;;;8.42;50.08
7584;BME280;3833;41.764;26.204;2023-02-13T11:10:15;100774.09;;;8.54;50.09
7584;BME280;3833;41.764;26.204;2023-02-13T11:12:42;100749.91;;;8.14;50.85
7584;BME280;3833;41.764;26.204;2023-02-13T11:15:21;100719.38;;;8.55;49.85
7584;BME280;3833;41.764;26.204;2023-02-13T11:17:48;100779.78;;;8.68;49.43
7584;BME280;3833;41.764;26.204;2023-02-13T11:20:33;100752.03;;;8.67;50.35
7584;BME280;3833;41.764;26.204;2023-02-13T11:23:32;100773.13;;;9.20;51.55
7584;BME280;3833;41.764;26.204;2023-02-13T11:26:02;100746.44;;;9.12;49.20
7584;BME280;3833;41.764;26.204;2023-02-13T11:28:36;100772.72;;;9.64;49.99
7584;BME280;3833;41.764;26.204;2023-02-13T11:31:12;100760.09;;;9.20;49.37
7584;BME280;3833;41.764;26.204;2023-02-13T11:33:40;100758.59;;;8.81;49.88
7584;BME280;3833;41.764;26.204;2023-02-13T11:36:13;100755.34;;;9.04;48.76
7584;BME280;3833;41.764;26.204;2023-02-13T11:38:40;100735.69;;;9.24;49.35
7584;BME280;3833;41.764;26.204;2023-02-13T11:41:09;100710.91;;;8.79;49.88
7584;BME280;3833;41.764;26.204;2023-02-13T11:43:43;100738.34;;;9.50;48.65
7584;BME280;3833;41.764;26.204;2023-02-13T11:46:17;100622.13;;;8.27;49.56
7584;BME280;3833;41.764;26.204;2023-02-13T11:48:55;100740.88;;;9.24;49.53
7584;BME280;3833;41.764;26.204;2023-02-13T11:51:36;100738.16;;;8.98;49.23
7584;BME280;3833;41.764;26.204;2023-02-13T11:54:04;100736.28;;;9.03;49.45
7584;BME280;3833;41.764;26.204;2023-02-13T11:56:47;100714.72;;;8.34;49.91
7584;BME280;3833;41.764;26.204;2023-02-13T11:59:15;100726.56;;;9.08;49.38
7584;BME280;3833;41.764;26.204;2023-02-13T12:01:42;100718.06;;;9.32;48.80
7584;BME280;3833;41.764;26.204;2023-02-13T12:04:14;100555.94;;;8.06;48.84
7584;BME280;3833;41.764;26.204;2023-02-13T12:06:59;100714.59;;;9.31;48.38
7584;BME280;3833;41.764;26.204;2023-02-13T12:09:26;100693.59;;;9.37;48.38
7584;BME280;3833;41.764;26.204;2023-02-13T12:11:56;100695.06;;;9.46;49.29
7584;BME280;3833;41.764;26.204;2023-02-13T12:14:26;100693.31;;;8.87;50.49
7584;BME280;3833;41.764;26.204;2023-02-13T12:16:58;100712.72;;;8.77;50.30
7584;BME280;3833;41.764;26.204;2023-02-13T12:19:30;100701.59;;;9.30;49.31
7584;BME280;3833;41.764;26.204;2023-02-13T12:22:19;100699.22;;;9.51;49.40
7584;BME280;3833;41.764;26.204;2023-02-13T12:25:10;100696.03;;;9.13;49.87
7584;BME280;3833;41.764;26.204;2023-02-13T12:27:44;100668.66;;;8.99;49.68
7584;BME280;3833;41.764;26.204;2023-02-13T12:30:31;100692.38;;;9.20;49.32
7584;BME280;3833;41.764;26.204;2023-02-13T12:33:08;100686.59;;;9.09;50.15
7584;BME280;3833;41.764;26.204;2023-02-13T12:35:47;100663.16;;;9.38;50.17
7584;BME280;3833;41.764;26.204;2023-02-13T12:38:29;100682.19;;;9.40;50.44
7584;BME280;3833;41.764;26.204;2023-02-13T12:41:12;100692.44;;;9.46;50.21
7584;BME280;3833;41.764;26.204;2023-02-13T12:43:56;100681.84;;;8.94;50.31
7584;BME280;3833;41.764;26.204;2023-02-13T12:46:29;100643.78;;;9.18;50.36
7584;BME280;3833;41.764;26.204;2023-02-13T12:49:05;100680.66;;;9.62;49.00
7584;BME280;3833;41.764;26.204;2023-02-13T12:51:46;100657.75;;;9.44;48.75
7584;BME280;3833;41.764;26.204;2023-02-13T12:54:36;100668.03;;;9.21;49.29
7584;BME280;3833;41.764;26.204;2023-02-13T12:57:17;100665.19;;;9.56;49.52
7584;BME280;3833;41.764;26.204;2023-02-13T13:00:02;100663.38;;;9.58;49.37
7584;BME280;3833;41.764;26.204;2023-02-13T13:02:46;100657.34;;;9.57;49.15
7584;BME280;3833;41.764;26.204;2023-02-13T13:05:26;100650.94;;;9.38;49.82
7584;BME280;3833;41.764;26.204;2023-02-13T13:11:01;100623.00;;;8.87;51.01
7584;BME280;3833;41.764;26.204;2023-02-13T13:13:46;100643.78;;;9.18;50.68
7584;BME280;3833;41.764;26.204;2023-02-13T13:16:20;100648.22;;;9.43;50.77
7584;BME280;3833;41.764;26.204;2023-02-13T13:18:59;100639.59;;;9.41;50.29
7584;BME280;3833;41.764;26.204;2023-02-13T13:21:34;100641.88;;;9.51;49.94
7584;BME280;3833;41.764;26.204;2023-02-13T13:24:08;100629.53;;;9.29;50.14
7584;BME280;3833;41.764;26.204;2023-02-13T13:26:43;100630.09;;;9.38;49.80
7584;BME280;3833;41.764;26.204;2023-02-13T13:29:15;100640.09;;;9.26;50.23
7584;BME280;3833;41.764;26.204;2023-02-13T13:31:46;100629.53;;;9.29;50.75